Time;durP1;ratioP1;P1;durP2;ratioP2;P2;SDS_P1;SDS_P2;PMS_P1;PMS_P2;Temp;Humidity;BMP_temperature;BMP_pressure;BME280_temperature;BME280_humidity;BME280_pressure;Samples;Min_cycle;Max_cycle;Signal;HPM_P1;HPM_P2
2022/02/21 00:01:47;;;;;;;9.38;1.63;;;6.80;99.90;;;;;;5048432;28;20434;-85
2022/02/21 00:04:13;;;;;;;8.82;1.30;;;6.60;99.90;;;;;;5032861;28;20079;-88
2022/02/21 00:06:38;;;;;;;5.90;1.05;;;6.70;99.90;;;;;;5028490;28;20045;-88
2022/02/21 00:09:04;;;;;;;6.47;1.20;;;6.80;99.90;;;;;;5018846;28;20030;-87
2022/02/21 00:11:30;;;;;;;10.98;1.70;;;6.60;99.90;;;;;;5012450;28;20449;-88
2022/02/21 00:13:57;;;;;;;10.45;1.83;;;6.50;99.90;;;;;;5012441;28;20503;-88
2022/02/21 00:16:22;;;;;;;11.80;2.40;;;6.40;99.90;;;;;;5026335;28;20033;-88
2022/02/21 00:18:48;;;;;;;6.07;1.10;;;6.40;99.90;;;;;;5023602;28;20041;-87
2022/02/21 00:21:13;;;;;;;15.10;2.08;;;6.40;99.90;;;;;;5007050;28;20051;-87
2022/02/21 00:23:39;;;;;;;14.82;2.22;;;6.50;99.90;;;;;;5011772;28;20046;-89
2022/02/21 00:26:04;;;;;;;6.43;1.50;;;6.50;99.90;;;;;;4979830;28;20038;-88
2022/02/21 00:28:30;;;;;;;13.52;2.25;;;6.50;99.90;;;;;;5001477;28;20045;-89
2022/02/21 00:30:55;;;;;;;13.32;2.72;;;6.60;99.90;;;;;;5027815;28;20046;-89
2022/02/21 00:33:21;;;;;;;14.30;2.75;;;6.50;99.90;;;;;;5012399;28;20037;-89
2022/02/21 00:35:47;;;;;;;11.85;2.80;;;6.50;99.90;;;;;;5012047;28;20425;-88
2022/02/21 00:38:12;;;;;;;18.05;3.17;;;6.50;99.90;;;;;;4995521;28;20038;-88
2022/02/21 00:40:38;;;;;;;12.85;2.88;;;6.60;99.90;;;;;;5026055;28;20484;-89
2022/02/21 00:43:03;;;;;;;17.55;3.17;;;6.70;99.90;;;;;;5012376;28;20045;-89
2022/02/21 00:45:29;;;;;;;16.05;2.67;;;6.70;99.90;;;;;;4995887;28;20064;-88
2022/02/21 00:47:55;;;;;;;16.30;3.05;;;6.70;99.90;;;;;;5014605;28;20060;-88
2022/02/21 00:50:20;;;;;;;11.30;2.30;;;6.70;99.90;;;;;;5015525;28;20487;-89
2022/02/21 00:52:46;;;;;;;11.93;2.30;;;6.80;99.90;;;;;;4999367;28;20041;-88
2022/02/21 00:55:11;;;;;;;17.42;2.50;;;6.70;99.90;;;;;;5014456;28;20037;-88
2022/02/21 00:57:37;;;;;;;16.10;2.28;;;6.80;99.90;;;;;;5018280;28;20065;-88
2022/02/21 01:00:05;;;;;;;15.95;2.85;;;6.80;99.90;;;;;;4998807;28;20105;-88
2022/02/21 01:02:32;;;;;;;18.25;3.13;;;6.90;99.90;;;;;;4998903;28;20049;-88
2022/02/21 01:04:58;;;;;;;18.08;2.75;;;6.80;99.90;;;;;;5031987;28;20041;-87
2022/02/21 01:07:24;;;;;;;10.40;1.75;;;6.80;99.90;;;;;;4999218;28;20380;-88
2022/02/21 01:09:49;;;;;;;6.43;1.50;;;6.90;99.90;;;;;;5014971;28;20052;-87
2022/02/21 01:12:15;;;;;;;15.32;2.65;;;6.80;99.90;;;;;;5002971;28;20462;-88
2022/02/21 01:14:41;;;;;;;12.13;2.55;;;6.70;99.90;;;;;;4999420;28;20052;-86
2022/02/21 01:17:06;;;;;;;9.45;2.17;;;6.80;99.90;;;;;;4998674;28;20052;-87
2022/02/21 01:19:32;;;;;;;14.15;2.35;;;6.90;99.90;;;;;;4999119;28;20042;-86
2022/02/21 01:21:58;;;;;;;13.95;2.83;;;6.90;99.90;;;;;;5027083;28;20049;-88
2022/02/21 01:24:23;;;;;;;12.20;3.30;;;6.90;99.90;;;;;;5051474;28;20041;-87
2022/02/21 01:26:49;;;;;;;10.18;2.25;;;6.70;99.90;;;;;;5051292;28;20214;-86
2022/02/21 01:29:15;;;;;;;13.05;2.65;;;6.70;99.90;;;;;;5034577;28;20518;-87
2022/02/21 01:31:41;;;;;;;11.55;2.25;;;6.70;99.90;;;;;;5034577;28;20116;-87
2022/02/21 01:34:06;;;;;;;15.63;2.25;;;6.70;99.90;;;;;;5051601;28;20176;-87
2022/02/21 01:36:32;;;;;;;16.55;3.30;;;6.70;99.90;;;;;;5034465;28;20067;-86
2022/02/21 01:38:58;;;;;;;17.90;3.60;;;6.70;99.90;;;;;;5034196;28;20087;-86
2022/02/21 01:41:23;;;;;;;17.70;2.80;;;6.60;99.90;;;;;;5051019;28;20045;-87
2022/02/21 01:43:49;;;;;;;16.98;2.80;;;6.60;99.90;;;;;;5034493;28;20124;-86
2022/02/21 01:46:15;;;;;;;16.73;2.97;;;6.40;99.90;;;;;;5034395;28;20040;-87
2022/02/21 01:48:41;;;;;;;17.50;3.00;;;6.40;99.90;;;;;;5018182;28;20398;-87
2022/02/21 01:51:07;;;;;;;15.70;2.70;;;6.50;99.90;;;;;;5034429;28;20037;-86
2022/02/21 01:53:33;;;;;;;10.45;2.03;;;6.40;99.90;;;;;;5034545;28;20439;-85
2022/02/21 01:55:59;;;;;;;18.70;3.35;;;6.40;99.90;;;;;;5052412;28;20037;-85
2022/02/21 01:58:24;;;;;;;17.63;3.60;;;6.40;99.90;;;;;;5038484;28;20121;-85
2022/02/21 02:00:50;;;;;;;9.85;2.28;;;6.50;99.90;;;;;;5033749;28;20054;-85
2022/02/21 02:03:16;;;;;;;20.50;4.20;;;6.40;99.90;;;;;;5033821;28;20497;-86
2022/02/21 02:05:42;;;;;;;18.08;3.53;;;6.40;99.90;;;;;;5034098;28;20124;-86
2022/02/21 02:08:08;;;;;;;15.93;2.85;;;6.40;99.90;;;;;;5030287;28;20441;-85
2022/02/21 02:10:35;;;;;;;21.65;3.33;;;6.40;99.90;;;;;;5012144;28;20052;-87
2022/02/21 02:13:01;;;;;;;26.10;3.38;;;6.40;99.90;;;;;;5027978;28;20045;-85
2022/02/21 02:15:27;;;;;;;22.08;4.05;;;6.50;99.90;;;;;;5037712;28;20044;-86
2022/02/21 02:17:53;;;;;;;14.68;2.92;;;6.50;99.90;;;;;;5053766;28;20087;-86
2022/02/21 02:20:18;;;;;;;13.35;3.03;;;6.50;99.90;;;;;;5042909;28;20033;-86
2022/02/21 02:22:46;;;;;;;16.25;2.75;;;6.50;99.90;;;;;;5023136;28;20054;-85
2022/02/21 02:25:11;;;;;;;21.40;4.10;;;6.40;99.90;;;;;;4997662;28;20100;-86
2022/02/21 02:27:37;;;;;;;21.85;3.22;;;6.60;99.90;;;;;;5023095;28;20033;-85
2022/02/21 02:30:04;;;;;;;15.35;2.50;;;6.50;99.90;;;;;;5028715;28;20053;-85
2022/02/21 02:32:30;;;;;;;13.80;2.53;;;6.50;99.90;;;;;;5016550;28;20049;-85
2022/02/21 02:34:55;;;;;;;16.10;3.55;;;6.40;99.90;;;;;;5037694;28;20509;-85
2022/02/21 02:37:22;;;;;;;13.38;2.75;;;6.30;99.90;;;;;;5013815;28;20423;-85
2022/02/21 02:39:49;;;;;;;14.15;2.95;;;6.50;99.90;;;;;;5013260;28;20056;-85
2022/02/21 02:42:15;;;;;;;13.10;2.38;;;6.40;99.90;;;;;;5030063;28;20050;-85
2022/02/21 02:44:43;;;;;;;12.82;2.97;;;6.20;99.90;;;;;;5013298;28;20064;-84
2022/02/21 02:47:11;;;;;;;17.52;3.40;;;6.20;99.90;;;;;;5013687;28;20087;-84
2022/02/21 02:49:37;;;;;;;13.32;3.40;;;6.10;99.90;;;;;;5013842;28;20038;-83
2022/02/21 02:52:03;;;;;;;12.65;2.78;;;6.20;99.90;;;;;;5032932;28;20049;-84
2022/02/21 02:54:29;;;;;;;13.20;2.63;;;6.20;99.90;;;;;;5049892;28;20398;-84
2022/02/21 02:56:54;;;;;;;22.50;3.45;;;6.20;99.90;;;;;;5014765;28;20038;-84
2022/02/21 02:59:23;;;;;;;12.43;2.38;;;6.20;99.90;;;;;;5030564;28;20041;-85
2022/02/21 03:01:49;;;;;;;15.45;2.08;;;6.10;99.90;;;;;;5032578;28;20037;-84
2022/02/21 03:04:15;;;;;;;16.50;3.05;;;6.20;99.90;;;;;;5033182;28;20437;-84
2022/02/21 03:06:40;;;;;;;17.50;3.80;;;6.10;99.90;;;;;;5016855;28;20874;-84
2022/02/21 03:09:06;;;;;;;11.18;2.40;;;6.10;99.90;;;;;;5031971;28;20037;-84
2022/02/21 03:11:32;;;;;;;20.48;2.83;;;6.00;99.90;;;;;;5032778;28;20041;-84
2022/02/21 03:14:00;;;;;;;18.10;2.92;;;6.00;99.90;;;;;;5032810;28;20048;-84
2022/02/21 03:16:26;;;;;;;8.55;1.92;;;6.00;99.90;;;;;;5030209;28;20431;-83
2022/02/21 03:18:53;;;;;;;15.15;2.95;;;6.00;99.90;;;;;;5013063;28;20100;-83
2022/02/21 03:21:19;;;;;;;14.00;3.63;;;5.90;99.90;;;;;;5012812;28;20053;-84
2022/02/21 03:23:44;;;;;;;17.15;2.88;;;6.00;99.90;;;;;;5034797;28;20055;-85
2022/02/21 03:26:10;;;;;;;17.10;3.13;;;5.90;99.90;;;;;;5052454;28;20057;-84
2022/02/21 03:28:35;;;;;;;13.95;2.85;;;5.80;99.90;;;;;;5041573;28;20171;-83
2022/02/21 03:31:01;;;;;;;10.48;2.92;;;5.80;99.90;;;;;;5032652;28;20041;-83
2022/02/21 03:33:27;;;;;;;13.05;2.65;;;5.90;99.90;;;;;;5031988;28;20461;-83
2022/02/21 03:35:52;;;;;;;16.08;3.28;;;5.80;99.90;;;;;;5032174;28;20041;-84
2022/02/21 03:38:18;;;;;;;20.48;3.67;;;5.70;99.90;;;;;;5032443;28;20045;-82
2022/02/21 03:40:44;;;;;;;21.85;3.42;;;5.80;99.90;;;;;;5020771;28;20038;-83
2022/02/21 03:43:10;;;;;;;14.93;3.58;;;5.70;99.90;;;;;;5012801;28;20042;-84
2022/02/21 03:45:36;;;;;;;10.70;2.25;;;5.70;99.90;;;;;;5030877;28;20038;-84
2022/02/21 03:48:02;;;;;;;8.75;1.88;;;5.70;99.90;;;;;;5045537;28;20115;-83
2022/02/21 03:52:56;;;;;;;13.48;2.33;;;5.60;99.90;;;;;;5050551;28;20049;-89
2022/02/21 03:55:22;;;;;;;10.80;2.67;;;5.60;99.90;;;;;;5036072;28;20122;-89
2022/02/21 03:57:48;;;;;;;10.25;2.40;;;5.60;99.90;;;;;;5030481;28;20096;-88
2022/02/21 04:00:15;;;;;;;15.55;2.92;;;5.60;99.90;;;;;;5031799;28;20722;-89
2022/02/21 04:02:42;;;;;;;9.63;2.50;;;5.50;99.90;;;;;;5019521;28;20041;-88
2022/02/21 04:05:08;;;;;;;25.10;4.25;;;5.60;99.90;;;;;;5032190;28;20034;-88
2022/02/21 04:07:34;;;;;;;19.38;3.90;;;5.50;99.90;;;;;;5027408;28;20037;-88
2022/02/21 04:10:00;;;;;;;14.10;2.97;;;5.60;99.90;;;;;;5020829;28;20494;-87
2022/02/21 04:12:26;;;;;;;17.90;3.35;;;5.70;99.90;;;;;;5036592;28;20079;-89
2022/02/21 04:14:52;;;;;;;15.18;3.40;;;5.50;99.90;;;;;;5032076;28;20041;-89
2022/02/21 04:17:18;;;;;;;15.32;2.45;;;5.50;99.90;;;;;;5034521;28;20459;-89
2022/02/21 04:19:46;;;;;;;17.77;2.83;;;5.60;99.90;;;;;;5035234;28;20389;-89
2022/02/21 04:22:14;;;;;;;14.25;2.75;;;5.60;99.90;;;;;;5035587;28;20049;-89
2022/02/21 04:24:40;;;;;;;15.32;2.83;;;5.60;99.90;;;;;;5022471;28;20556;-88
2022/02/21 04:27:06;;;;;;;16.77;2.95;;;5.60;99.90;;;;;;5039501;28;20041;-89
2022/02/21 04:29:32;;;;;;;15.60;3.38;;;5.50;99.90;;;;;;5039647;28;20387;-88
2022/02/21 04:31:57;;;;;;;13.93;3.20;;;5.40;99.90;;;;;;5039253;28;20136;-90
2022/02/21 04:34:23;;;;;;;11.80;2.60;;;5.30;99.90;;;;;;5039592;28;20044;-89
2022/02/21 04:36:49;;;;;;;15.63;2.42;;;5.30;99.90;;;;;;5039176;28;20072;-89
2022/02/21 04:39:14;;;;;;;20.50;2.60;;;5.40;99.90;;;;;;5029993;28;20048;-88
2022/02/21 04:41:40;;;;;;;12.73;2.67;;;5.40;99.90;;;;;;5036251;28;20033;-89
2022/02/21 04:44:06;;;;;;;11.38;2.20;;;5.50;99.90;;;;;;5019216;28;20037;-89
2022/02/21 04:46:32;;;;;;;14.88;2.80;;;5.50;99.90;;;;;;5022480;28;20044;-90
2022/02/21 04:48:57;;;;;;;18.73;3.45;;;5.70;99.90;;;;;;5037942;28;20123;-90
2022/02/21 04:51:23;;;;;;;14.18;2.47;;;5.60;99.90;;;;;;5035625;28;20049;-88
2022/02/21 04:53:48;;;;;;;15.07;3.22;;;5.60;99.90;;;;;;5035377;28;20042;-89
2022/02/21 04:56:14;;;;;;;12.90;2.28;;;5.50;99.90;;;;;;5037816;28;20040;-89
2022/02/21 04:58:40;;;;;;;17.42;3.00;;;5.60;99.90;;;;;;5039050;28;20132;-90
2022/02/21 05:01:05;;;;;;;13.38;2.72;;;5.50;99.90;;;;;;5038816;28;20041;-89
2022/02/21 05:03:31;;;;;;;13.77;2.45;;;5.60;99.90;;;;;;5035619;28;20046;-89
2022/02/21 05:05:56;;;;;;;17.38;3.30;;;5.50;99.90;;;;;;5035297;28;20049;-89
2022/02/21 05:08:22;;;;;;;11.82;2.28;;;5.50;99.90;;;;;;5037422;28;20166;-89
2022/02/21 05:10:47;;;;;;;14.80;2.90;;;5.60;99.90;;;;;;5037468;28;20080;-89
2022/02/21 05:13:13;;;;;;;11.57;2.67;;;5.50;99.90;;;;;;5027836;28;20038;-90
2022/02/21 05:15:38;;;;;;;15.45;2.70;;;5.70;99.90;;;;;;5021888;28;20037;-89
2022/02/21 05:18:04;;;;;;;17.05;2.83;;;5.70;99.90;;;;;;5027731;28;20053;-89
2022/02/21 05:20:29;;;;;;;13.65;2.83;;;5.50;99.90;;;;;;5018229;28;20041;-90
2022/02/21 05:22:55;;;;;;;10.60;2.42;;;5.60;99.90;;;;;;5018629;28;20128;-89
2022/02/21 05:25:21;;;;;;;14.88;3.15;;;5.60;99.90;;;;;;5033788;28;20040;-90
2022/02/21 05:27:46;;;;;;;11.68;2.03;;;5.50;99.90;;;;;;5035464;28;20037;-88
2022/02/21 05:30:14;;;;;;;13.40;2.72;;;5.60;99.90;;;;;;5038426;28;20048;-90
2022/02/21 05:32:40;;;;;;;14.32;3.20;;;5.60;99.90;;;;;;5033834;28;20049;-89
2022/02/21 05:35:06;;;;;;;13.43;2.85;;;5.60;99.90;;;;;;5021740;28;20082;-88
2022/02/21 05:37:32;;;;;;;16.10;2.80;;;5.60;99.90;;;;;;5038053;28;20040;-89
2022/02/21 05:39:57;;;;;;;9.60;2.65;;;5.70;99.90;;;;;;5021015;28;20029;-88
2022/02/21 05:42:23;;;;;;;18.00;3.80;;;5.70;99.90;;;;;;5038085;28;20398;-89
2022/02/21 05:44:48;;;;;;;14.05;3.00;;;5.60;99.90;;;;;;5034741;28;20064;-89
2022/02/21 05:47:14;;;;;;;16.00;2.75;;;5.60;99.90;;;;;;5021535;28;20033;-89
2022/02/21 05:49:40;;;;;;;15.82;2.90;;;5.60;99.90;;;;;;5021085;28;20043;-88
2022/02/21 05:52:06;;;;;;;14.95;2.45;;;5.50;99.90;;;;;;5037631;28;20103;-89
2022/02/21 05:54:31;;;;;;;15.38;2.88;;;5.50;99.90;;;;;;5034353;28;20045;-89
2022/02/21 05:56:57;;;;;;;16.23;3.30;;;5.60;99.90;;;;;;5020565;28;20043;-88
2022/02/21 05:59:23;;;;;;;11.73;2.80;;;5.60;99.90;;;;;;5033638;28;20376;-89
2022/02/21 06:01:49;;;;;;;14.13;2.38;;;5.60;99.90;;;;;;5037549;28;20048;-91
2022/02/21 06:04:15;;;;;;;13.98;2.72;;;5.60;99.90;;;;;;5037735;28;20036;-89
2022/02/21 06:06:41;;;;;;;12.77;2.92;;;5.60;99.90;;;;;;5035901;28;20094;-91
2022/02/21 06:09:07;;;;;;;15.27;3.00;;;5.60;99.90;;;;;;5030347;28;20044;-91
2022/02/21 06:11:33;;;;;;;15.95;2.60;;;5.60;99.90;;;;;;5021281;28;20111;-89
2022/02/21 06:13:58;;;;;;;17.35;2.45;;;5.60;99.90;;;;;;5030576;28;20520;-89
2022/02/21 06:16:24;;;;;;;14.95;2.67;;;5.70;99.90;;;;;;5037172;28;20041;-90
2022/02/21 06:18:49;;;;;;;12.65;2.42;;;5.60;99.90;;;;;;5033663;28;20049;-89
2022/02/21 06:21:15;;;;;;;11.30;2.67;;;5.60;99.90;;;;;;5017632;28;20049;-90
2022/02/21 06:23:40;;;;;;;12.10;2.63;;;5.70;99.90;;;;;;5025772;28;20045;-90
2022/02/21 06:26:06;;;;;;;13.45;2.75;;;5.70;99.90;;;;;;5034106;28;20041;-90
2022/02/21 06:28:32;;;;;;;13.50;2.65;;;5.80;99.90;;;;;;5035622;28;20037;-90
2022/02/21 06:30:58;;;;;;;17.13;3.10;;;5.80;99.90;;;;;;5022711;28;20093;-90
2022/02/21 06:33:24;;;;;;;16.92;2.38;;;5.70;99.90;;;;;;5007455;28;20033;-90
2022/02/21 06:35:50;;;;;;;12.60;2.70;;;5.70;99.90;;;;;;5017447;28;20041;-91
2022/02/21 06:38:16;;;;;;;14.52;2.78;;;5.70;99.90;;;;;;5018361;28;20049;-89
2022/02/21 06:40:41;;;;;;;13.68;2.90;;;5.70;99.90;;;;;;5036389;28;20061;-89
2022/02/21 06:43:07;;;;;;;17.88;3.13;;;5.60;99.90;;;;;;5035529;28;20048;-89
2022/02/21 06:45:33;;;;;;;10.18;2.78;;;5.60;99.90;;;;;;5032685;28;20100;-90
2022/02/21 06:47:59;;;;;;;10.52;2.03;;;5.70;99.90;;;;;;5032299;28;20051;-91
2022/02/21 06:50:25;;;;;;;9.68;2.88;;;5.70;99.90;;;;;;5033164;28;20041;-88
2022/02/21 06:52:51;;;;;;;13.00;2.67;;;5.70;99.90;;;;;;5036080;28;20057;-89
2022/02/21 06:55:17;;;;;;;16.90;2.75;;;5.60;99.90;;;;;;5033121;28;20037;-90
2022/02/21 06:57:45;;;;;;;18.98;3.70;;;5.60;99.90;;;;;;5019782;28;20040;-88
2022/02/21 07:00:11;;;;;;;11.02;2.95;;;5.60;99.90;;;;;;5035505;28;20120;-89
2022/02/21 07:02:37;;;;;;;13.10;2.45;;;5.60;99.90;;;;;;5032329;28;20038;-88
2022/02/21 07:05:05;;;;;;;16.52;3.60;;;5.60;99.90;;;;;;5029491;28;20044;-89
2022/02/21 07:07:31;;;;;;;13.75;2.75;;;5.60;99.90;;;;;;5015025;28;20049;-88
2022/02/21 07:09:57;;;;;;;15.23;2.95;;;5.70;99.90;;;;;;5032416;28;20037;-90
2022/02/21 07:12:22;;;;;;;6.90;1.83;;;5.70;99.90;;;;;;5016331;28;20395;-90
2022/02/21 07:14:48;;;;;;;18.88;3.50;;;5.80;99.90;;;;;;5015817;28;20069;-90
2022/02/21 07:17:14;;;;;;;16.48;3.72;;;5.70;99.90;;;;;;5033385;28;20068;-89
2022/02/21 07:19:40;;;;;;;13.73;3.05;;;5.70;99.90;;;;;;5035885;28;20076;-89
2022/02/21 07:22:05;;;;;;;19.17;3.33;;;5.70;99.90;;;;;;5035677;28;20041;-90
2022/02/21 07:24:31;;;;;;;15.32;2.70;;;5.80;99.90;;;;;;5035760;28;20650;-90
2022/02/21 07:26:57;;;;;;;17.13;3.40;;;5.70;99.90;;;;;;5035863;28;20048;-89
2022/02/21 07:29:23;;;;;;;17.83;4.30;;;5.70;99.90;;;;;;5035273;28;20044;-89
2022/02/21 07:31:50;;;;;;;14.65;2.83;;;5.80;99.90;;;;;;5029352;28;20122;-89
2022/02/21 07:34:15;;;;;;;18.83;2.72;;;5.80;99.90;;;;;;5049115;28;20820;-89
2022/02/21 07:36:42;;;;;;;19.58;3.38;;;5.70;99.90;;;;;;5034930;28;20097;-90
2022/02/21 07:39:07;;;;;;;16.00;3.33;;;5.90;99.90;;;;;;5035597;28;20098;-89
2022/02/21 07:41:33;;;;;;;18.77;3.60;;;5.80;99.90;;;;;;5033469;28;20037;-90
2022/02/21 07:43:59;;;;;;;19.70;4.15;;;5.90;99.90;;;;;;5035780;28;20509;-90
2022/02/21 07:46:24;;;;;;;20.30;3.65;;;6.00;99.90;;;;;;5031825;28;20033;-88
2022/02/21 07:48:50;;;;;;;17.55;3.88;;;5.90;99.90;;;;;;5032544;28;20068;-90
2022/02/21 07:51:16;;;;;;;13.38;2.60;;;5.90;99.90;;;;;;4999524;28;20406;-89
2022/02/21 07:53:41;;;;;;;14.60;3.05;;;5.90;99.90;;;;;;5027416;28;20489;-90
2022/02/21 07:56:07;;;;;;;22.05;3.75;;;5.90;99.90;;;;;;5023659;28;20091;-89
2022/02/21 07:58:33;;;;;;;17.08;3.50;;;5.90;99.90;;;;;;5034223;28;20065;-90
2022/02/21 08:00:59;;;;;;;17.45;3.30;;;5.80;99.90;;;;;;5039894;28;20109;-89
2022/02/21 08:03:24;;;;;;;20.05;3.33;;;5.80;99.90;;;;;;5033641;28;20052;-90
2022/02/21 08:05:52;;;;;;;19.58;3.42;;;5.80;99.90;;;;;;5020307;28;20045;-88
2022/02/21 08:08:17;;;;;;;13.25;2.78;;;5.80;99.90;;;;;;5023220;28;20127;-89
2022/02/21 08:10:43;;;;;;;17.52;3.28;;;5.80;99.90;;;;;;5039399;28;20079;-88
2022/02/21 08:13:08;;;;;;;20.38;4.20;;;5.80;99.90;;;;;;5039398;28;20072;-89
2022/02/21 08:15:34;;;;;;;11.73;2.30;;;5.80;99.90;;;;;;5039495;28;20465;-87
2022/02/21 08:17:59;;;;;;;14.20;3.13;;;5.90;99.90;;;;;;5039365;28;20048;-89
2022/02/21 08:20:25;;;;;;;13.13;2.78;;;5.80;99.90;;;;;;5039710;28;20124;-90
2022/02/21 08:22:52;;;;;;;18.80;3.05;;;5.90;99.90;;;;;;5034293;28;20068;-89
2022/02/21 08:25:18;;;;;;;13.50;2.72;;;5.90;99.90;;;;;;5033374;28;20037;-89
2022/02/21 08:27:45;;;;;;;16.10;3.42;;;5.90;99.90;;;;;;5039559;28;20386;-91
2022/02/21 08:30:14;;;;;;;15.73;2.42;;;5.90;99.90;;;;;;5037628;28;20043;-90
2022/02/21 08:32:40;;;;;;;14.30;3.33;;;5.90;99.90;;;;;;5025920;28;20438;-88
2022/02/21 08:35:07;;;;;;;13.85;3.05;;;5.90;99.90;;;;;;5002867;28;20128;-90
2022/02/21 08:37:33;;;;;;;18.45;3.28;;;5.90;99.90;;;;;;5026824;28;20478;-89
2022/02/21 08:39:59;;;;;;;14.35;3.20;;;6.00;99.90;;;;;;5035184;28;20040;-88
2022/02/21 08:42:24;;;;;;;12.88;2.97;;;6.00;99.90;;;;;;5019185;28;20048;-88
2022/02/21 08:44:50;;;;;;;13.82;3.30;;;5.80;99.90;;;;;;5038287;28;20037;-90
2022/02/21 08:47:16;;;;;;;18.08;2.90;;;5.70;99.90;;;;;;5035731;28;20167;-89
2022/02/21 08:49:43;;;;;;;10.98;2.58;;;5.70;99.90;;;;;;5035187;28;20045;-89
2022/02/21 08:52:08;;;;;;;12.63;2.92;;;5.70;99.90;;;;;;5019029;28;20056;-89
2022/02/21 08:54:35;;;;;;;15.27;3.42;;;5.50;99.90;;;;;;5034211;28;20041;-89
2022/02/21 08:57:02;;;;;;;11.27;2.60;;;5.50;99.90;;;;;;5028370;28;20032;-89
2022/02/21 08:59:28;;;;;;;10.15;2.28;;;5.40;99.90;;;;;;5038945;28;20387;-85
2022/02/21 09:01:53;;;;;;;7.03;1.70;;;5.30;99.90;;;;;;5039294;28;20049;-84
2022/02/21 09:04:19;;;;;;;10.10;1.70;;;5.50;99.90;;;;;;5029496;28;20042;-88
2022/02/21 09:06:44;;;;;;;6.60;1.48;;;5.40;99.90;;;;;;5031640;28;20033;-87
2022/02/21 09:09:10;;;;;;;12.15;2.00;;;5.50;99.90;;;;;;5037729;28;20045;-87
2022/02/21 09:11:36;;;;;;;6.15;1.67;;;5.30;99.90;;;;;;5038023;28;20045;-90
2022/02/21 09:14:01;;;;;;;4.05;1.00;;;5.10;99.90;;;;;;5038578;28;20116;-89
2022/02/21 09:16:27;;;;;;;8.25;1.40;;;4.80;99.90;;;;;;5033335;28;20048;-89
2022/02/21 09:18:53;;;;;;;6.10;1.45;;;4.50;99.90;;;;;;5038128;28;20037;-91
2022/02/21 09:21:18;;;;;;;3.03;1.20;;;4.40;99.90;;;;;;5038001;28;20033;-89
2022/02/21 09:23:44;;;;;;;4.78;1.20;;;4.20;99.90;;;;;;5038484;28;20041;-90
2022/02/21 09:26:09;;;;;;;5.72;1.10;;;4.10;99.90;;;;;;5025721;28;20124;-89
2022/02/21 09:28:35;;;;;;;5.72;1.52;;;4.10;99.90;;;;;;5018966;28;20104;-89
2022/02/21 09:31:00;;;;;;;3.55;1.08;;;4.00;99.90;;;;;;5025382;28;20036;-89
2022/02/21 09:33:26;;;;;;;8.40;1.75;;;4.00;99.90;;;;;;5035031;28;20067;-89
2022/02/21 09:35:52;;;;;;;5.00;1.33;;;3.90;99.90;;;;;;5018228;28;20045;-90
2022/02/21 09:38:18;;;;;;;2.50;0.98;;;3.90;99.90;;;;;;5019375;28;20077;-90
2022/02/21 09:40:46;;;;;;;7.50;1.10;;;4.00;99.90;;;;;;5021338;28;20037;-89
2022/02/21 09:43:13;;;;;;;3.15;0.88;;;4.00;99.90;;;;;;5038382;28;20629;-90
2022/02/21 09:45:42;;;;;;;3.17;0.68;;;3.90;99.90;;;;;;5037922;28;20036;-89
2022/02/21 09:48:11;;;;;;;2.70;0.80;;;3.90;99.90;;;;;;5028909;28;20107;-88
2022/02/21 09:50:37;;;;;;;5.63;1.02;;;3.90;99.90;;;;;;5016635;28;20040;-88
2022/02/21 09:53:04;;;;;;;4.90;0.85;;;3.90;99.90;;;;;;5035591;28;20449;-88
2022/02/21 09:55:31;;;;;;;2.45;0.80;;;4.00;99.90;;;;;;5031438;28;20049;-88
2022/02/21 09:57:58;;;;;;;2.92;0.60;;;4.10;99.90;;;;;;5024950;28;20135;-88
2022/02/21 10:00:24;;;;;;;4.32;1.00;;;4.00;99.90;;;;;;5024542;28;20142;-89
2022/02/21 10:02:51;;;;;;;1.38;0.80;;;4.00;99.90;;;;;;5016254;28;20580;-88
2022/02/21 10:05:21;;;;;;;2.15;0.80;;;3.90;99.90;;;;;;5016705;28;20049;-89
2022/02/21 10:07:48;;;;;;;5.20;1.23;;;3.80;99.90;;;;;;5035839;28;20561;-86
2022/02/21 10:10:18;;;;;;;1.95;0.98;;;3.70;99.90;;;;;;5051179;28;20041;-85
2022/02/21 10:13:00;;;;;;;5.10;1.42;;;3.60;99.90;;;;;;5017518;28;20060;-86
2022/02/21 10:15:34;;;;;;;3.97;0.95;;;3.60;99.90;;;;;;5004111;28;20126;-87
2022/02/21 10:18:18;;;;;;;2.08;1.08;;;3.40;99.90;;;;;;5035609;28;20052;-87
2022/02/21 10:20:54;;;;;;;2.97;1.63;;;3.30;99.90;;;;;;5021047;28;20585;-86
2022/02/21 10:23:20;;;;;;;6.38;1.25;;;3.30;99.90;;;;;;5016298;28;20056;-85
2022/02/21 10:25:57;;;;;;;2.13;1.05;;;3.20;99.90;;;;;;5000319;28;20487;-86
2022/02/21 10:28:42;;;;;;;2.88;0.85;;;3.20;99.90;;;;;;5030940;28;20143;-87
2022/02/21 10:31:23;;;;;;;3.45;0.80;;;3.20;99.90;;;;;;5036180;28;20041;-86
2022/02/21 10:34:01;;;;;;;2.25;0.70;;;3.10;99.90;;;;;;5036439;28;20056;-87
2022/02/21 10:36:28;;;;;;;2.75;0.90;;;3.10;99.90;;;;;;5036588;28;20433;-87
2022/02/21 10:38:54;;;;;;;1.52;0.68;;;3.20;99.90;;;;;;5019858;28;20041;-86
2022/02/21 10:41:22;;;;;;;1.90;0.73;;;3.10;99.90;;;;;;5036266;28;20040;-87
2022/02/21 10:43:48;;;;;;;3.75;1.38;;;3.30;99.90;;;;;;5035812;28;20084;-87
2022/02/21 10:46:14;;;;;;;3.78;1.33;;;3.20;99.90;;;;;;5052747;28;20545;-87
2022/02/21 10:48:43;;;;;;;1.70;0.70;;;3.30;99.90;;;;;;5053051;28;20395;-88
2022/02/21 10:51:09;;;;;;;2.80;1.10;;;3.10;99.90;;;;;;5034156;28;20410;-81
2022/02/21 10:53:49;;;;;;;2.00;1.08;;;3.40;99.90;;;;;;5042802;28;20453;-86
2022/02/21 10:56:16;;;;;;;3.20;0.77;;;3.40;99.90;;;;;;5019426;28;20048;-87
2022/02/21 10:58:42;;;;;;;2.95;0.80;;;3.40;99.90;;;;;;5024140;28;20502;-86
2022/02/21 11:01:10;;;;;;;3.10;1.35;;;3.20;99.90;;;;;;5018093;28;20324;-86
2022/02/21 11:03:36;;;;;;;2.85;1.00;;;3.20;99.90;;;;;;5024147;28;20072;-86
2022/02/21 11:06:04;;;;;;;3.75;0.93;;;3.20;99.90;;;;;;5028490;28;20072;-86
2022/02/21 11:08:31;;;;;;;1.90;0.98;;;3.10;99.90;;;;;;5034064;28;20509;-85
2022/02/21 11:11:04;;;;;;;3.38;1.00;;;3.10;99.90;;;;;;5029483;28;20044;-86
2022/02/21 11:13:35;;;;;;;2.92;1.55;;;3.00;99.90;;;;;;5032144;28;20725;-86
2022/02/21 11:16:01;;;;;;;4.03;1.20;;;3.00;99.90;;;;;;5027225;28;20073;-86
2022/02/21 11:18:28;;;;;;;4.80;1.20;;;3.00;99.90;;;;;;5015514;28;20056;-86
2022/02/21 11:20:53;;;;;;;3.42;1.30;;;3.00;99.90;;;;;;5015129;28;20037;-85
2022/02/21 11:23:19;;;;;;;2.83;1.00;;;3.00;99.90;;;;;;5031333;28;20377;-84
2022/02/21 11:25:50;;;;;;;2.55;1.00;;;3.00;99.90;;;;;;5025432;28;20038;-78
2022/02/21 11:28:29;;;;;;;2.75;1.13;;;3.10;99.90;;;;;;5037457;28;20037;-78
2022/02/21 11:31:00;;;;;;;4.53;1.52;;;3.10;99.90;;;;;;5020740;28;20080;-78
2022/02/21 11:33:25;;;;;;;4.50;2.00;;;3.10;99.90;;;;;;5029225;28;20124;-78
2022/02/21 11:36:07;;;;;;;4.72;1.60;;;3.10;99.90;;;;;;5023662;28;20168;-78
2022/02/21 11:38:35;;;;;;;6.32;1.98;;;3.20;99.90;;;;;;5014808;28;20116;-78
2022/02/21 11:41:06;;;;;;;5.57;1.90;;;3.30;99.90;;;;;;5025379;28;20064;-78
2022/02/21 11:43:43;;;;;;;6.50;2.45;;;3.40;99.90;;;;;;5023964;28;20090;-78
2022/02/21 11:46:25;;;;;;;9.38;3.70;;;3.60;99.90;;;;;;5035409;28;20029;-78
2022/02/21 11:49:00;;;;;;;24.08;9.52;;;3.70;99.90;;;;;;5024776;28;20534;-78
2022/02/21 11:51:37;;;;;;;8.55;2.78;;;3.70;99.90;;;;;;5013655;28;20051;-78
2022/02/21 11:54:09;;;;;;;10.50;3.33;;;3.80;99.90;;;;;;5029844;28;20528;-78
2022/02/21 11:56:58;;;;;;;14.13;2.85;;;3.90;99.90;;;;;;5038041;28;20491;-78
2022/02/21 11:59:26;;;;;;;13.82;3.20;;;4.00;99.90;;;;;;5009510;28;20081;-78
2022/02/21 12:02:03;;;;;;;12.15;2.95;;;4.10;99.90;;;;;;5026626;28;20034;-78
2022/02/21 12:04:48;;;;;;;20.88;2.92;;;4.30;99.90;;;;;;5023011;28;20460;-78
2022/02/21 12:07:25;;;;;;;17.73;3.40;;;4.40;99.90;;;;;;5019702;28;20045;-78
2022/02/21 12:10:21;;;;;;;25.85;3.85;;;4.50;99.90;;;;;;5013547;28;20050;-77
2022/02/21 12:13:11;;;;;;;18.50;4.07;;;4.80;99.90;;;;;;5006478;28;20479;-77
2022/02/21 12:15:37;;;;;;;22.70;4.38;;;5.10;99.90;;;;;;5032289;28;20049;-77
2022/02/21 12:18:08;;;;;;;24.83;4.38;;;5.30;99.90;;;;;;5025110;28;20068;-77
2022/02/21 12:20:39;;;;;;;20.40;3.65;;;5.40;99.90;;;;;;5000963;28;20029;-85
2022/02/21 12:23:16;;;;;;;22.90;4.20;;;5.60;99.90;;;;;;5021284;28;20029;-77
2022/02/21 12:26:06;;;;;;;23.10;3.85;;;5.80;99.90;;;;;;5021760;28;20041;-77
2022/02/21 12:28:33;;;;;;;28.10;4.35;;;5.90;99.90;;;;;;5021178;28;20040;-77
2022/02/21 12:30:59;;;;;;;27.65;4.60;;;6.10;99.90;;;;;;5011513;28;20125;-77
2022/02/21 12:33:33;;;;;;;14.18;2.72;;;6.10;99.90;;;;;;5023456;28;20041;-77
2022/02/21 12:36:01;;;;;;;25.85;4.82;;;6.30;99.90;;;;;;5022568;28;20041;-77
2022/02/21 12:38:28;;;;;;;20.48;4.60;;;6.50;99.90;;;;;;5014097;28;20086;-77
2022/02/21 12:41:07;;;;;;;30.10;4.60;;;6.50;99.90;;;;;;5012211;28;20452;-77
2022/02/21 12:43:48;;;;;;;23.13;4.18;;;6.60;99.90;;;;;;5029726;28;20041;-78
2022/02/21 12:46:16;;;;;;;27.10;4.50;;;6.70;99.90;;;;;;5026912;28;20037;-78
2022/02/21 12:48:46;;;;;;;32.63;6.10;;;6.80;99.90;;;;;;5018853;28;20124;-78
2022/02/21 12:51:20;;;;;;;30.55;5.43;;;6.80;99.90;;;;;;5018017;28;20048;-78
2022/02/21 12:54:12;;;;;;;28.63;5.50;;;6.90;99.90;;;;;;5012620;28;20137;-78